Chickering American River Reserve, California Weather observations

Data are for 10 minute period ending at time listed.
 Day   Time   Solar   Ave.   Ave.  Ave.  Vector  Max.   Baro.   Total    
  of    of     Rad.   Air    Rel.  Wind   Wind   Wind  Press.  Precip.   
Year   Day            Temp.  Hum.  Speed  Dir.   Gust                    
2026   (PST)  Kw/m2    F      %     mph   deg.    mph    mb.     in.     
-------------------------------------------------------------------------
 121   17:10   0.13   61.0    45    0.3   128     3.1   818.0    0.00 
 121   17:20   0.02   60.6    47    0.4   104     2.4   818.0    0.00 
 121   17:30   0.02   59.7    49    0.6   136     5.2   818.0    0.00 
 121   17:40   0.03   58.9    50    0.3   189     2.6   818.0    0.00 
 121   17:50   0.03   58.3    53    0.1   150     0.8   817.9    0.00 
 121   18:00   0.04   57.6    55    0.0   129     1.3   817.9    0.00 
 121   18:10   0.03   56.8    57    0.2   179     3.2   818.0    0.00 
 121   18:20   0.02   56.0    58    0.1   170     1.1   818.0    0.00 
 121   18:30   0.02   55.0    61    0.2   165     1.3   818.0    0.00 
 121   18:40   0.02   54.2    63    0.0     0     0.0   818.0    0.00 
 121   18:50   0.01   53.4    62    0.5   246     1.3   818.1    0.00 
 121   19:00   0.00   52.8    61    0.5   246     1.2   818.1    0.00 
 121   19:10   0.00   51.6    66    0.9   203     2.4   818.2    0.00 
 121   19:20   0.00   50.2    68    1.5   209     2.8   818.2    0.00 
 121   19:30   0.00   49.3    69    1.2   205     2.3   818.3    0.00 
 121   19:40   0.00   48.5    73    0.7   195     1.8   818.3    0.00 
 121   19:50   0.00   47.9    75    1.3   215     2.2   818.4    0.00 
 121   20:00   0.00   47.6    75    0.6   203     1.5   818.5    0.00 
 121   20:10   0.00   47.0    75    0.9   188     1.9   818.6    0.00 
 121   20:20   0.00   46.6    75    0.9   216     1.8   818.6    0.00 
 121   20:30   0.00   46.6    75    0.7   220     1.7   818.6    0.00 
 121   20:40   0.00   46.3    76    0.8   197     1.9   818.7    0.00 
 121   20:50   0.00   45.7    78    1.3   197     2.0   818.8    0.00 
 121   21:00   0.00   45.5    79    0.9   202     1.7   818.9    0.00 
 121   21:10   0.00   45.1    80    1.2   196     2.2   818.9    0.00 
 121   21:20   0.00   44.7    81    1.2   202     2.6   818.8    0.00 
 121   21:30   0.00   44.6    82    1.0   196     2.0   818.8    0.00 
 121   21:40   0.00   44.1    83    1.3   195     2.3   818.8    0.00 
 121   21:50   0.00   44.0    83    0.8   207     2.0   818.7    0.00 
 121   22:00   0.00   44.1    82    1.0   202     2.2   818.7    0.00 
 121   22:10   0.00   43.7    84    0.9   199     2.1   818.7    0.00 
 121   22:20   0.00   43.6    83    0.8   208     2.4   818.6    0.00 
 121   22:30   0.00   44.1    81    0.6   225     1.8   818.6    0.00 
 121   22:40   0.00   43.5    83    1.2   202     2.0   818.7    0.00 
 121   22:50   0.00   43.1    84    1.6   196     2.6   818.7    0.00 
 121   23:00   0.00   43.2    84    1.1   208     2.8   818.6    0.00 
 121   23:10   0.00   43.1    84    1.4   194     2.8   818.6    0.00 
 121   23:20   0.00   42.6    86    0.8   198     1.8   818.5    0.00 
 121   23:30   0.00   42.6    85    1.1   212     2.0   818.5    0.00 
 121   23:40   0.00   42.5    85    1.4   190     2.6   818.5    0.00 
 121   23:50   0.00   42.1    86    1.7   202     2.6   818.4    0.00 
 122    0:00   0.00   42.1    85    1.4   195     2.2   818.3    0.00 
 122    0:10   0.00   41.7    85    1.5   194     2.6   818.2    0.00 
 122    0:20   0.00   41.7    84    1.4   196     2.2   818.2    0.00 
 122    0:30   0.00   41.7    83    1.7   208     3.1   818.2    0.00 
 122    0:40   0.00   41.6    82    1.6   196     2.5   818.1    0.00 
 122    0:50   0.00   41.4    81    1.4   204     2.6   818.1    0.00 
 122    1:00   0.00   41.3    81    1.6   196     2.4   818.0    0.00 
 122    1:10   0.00   41.3    80    1.4   185     1.9   817.9    0.00 
 122    1:20   0.00   41.0    81    1.2   194     1.9   817.8    0.00 
 122    1:30   0.00   41.1    80    0.9   195     1.8   817.8    0.00 
 122    1:40   0.00   41.0    80    1.2   195     2.5   817.8    0.00 
 122    1:50   0.00   41.0    80    1.0   200     2.6   817.7    0.00 
 122    2:00   0.00   41.1    80    0.8   186     2.5   817.7    0.00 
 122    2:10   0.00   40.9    81    1.0   208     2.3   817.7    0.00 
 122    2:20   0.00   41.3    79    1.0   212     2.1   817.8    0.00 
 122    2:30   0.00   41.0    82    1.4   195     2.6   817.8    0.00 
 122    2:40   0.00   40.8    84    1.4   207     2.3   817.8    0.00 
 122    2:50   0.00   40.9    84    0.9   207     1.6   817.8    0.00 
 122    3:00   0.00   40.9    86    1.0   203     1.8   817.7    0.00 
 122    3:10   0.00   40.7    87    0.8   204     1.5   817.7    0.00 
 122    3:20   0.00   40.9    88    1.0   204     1.9   817.7    0.00 
 122    3:30   0.00   40.7    89    1.0   185     1.9   817.7    0.00 
 122    3:40   0.00   40.2    90    0.9   186     1.7   817.7    0.00 
 122    3:50   0.00   40.0    91    0.9   188     1.9   817.7    0.00 
 122    4:00   0.00   39.9    92    1.0   191     1.8   817.6    0.00 
 122    4:10   0.00   39.8    93    0.8   188     1.7   817.6    0.00 
 122    4:20   0.00   39.9    93    0.7   195     2.0   817.6    0.00 
 122    4:30   0.00   40.1    93    0.9   213     2.0   817.5    0.00 
 122    4:40   0.00   40.2    93    0.9   200     2.0   817.5    0.00 
 122    4:50   0.00   40.1    93    0.8   202     1.8   817.5    0.00 
 122    5:00   0.00   39.9    93    1.0   198     2.0   817.4    0.00 
 122    5:10   0.00   39.6    93    1.1   185     2.0   817.4    0.00 
 122    5:20   0.01   39.2    93    1.1   188     2.4   817.5    0.00 
 122    5:30   0.01   39.1    93    1.2   202     2.0   817.4    0.00 
 122    5:40   0.03   39.2    92    1.0   194     2.1   817.5    0.00 
 122    5:50   0.03   39.3    91    1.0   194     1.8   817.5    0.00 
 122    6:00   0.04   39.7    91    0.9   189     2.2   817.6    0.00 
 122    6:10   0.06   40.3    90    1.1   195     2.8   817.7    0.00 
 122    6:20   0.06   41.0    89    1.1   199     3.4   817.8    0.00 
 122    6:30   0.07   42.0    87    0.7   216     2.5   817.8    0.00 
 122    6:40   0.09   42.7    86    0.6   183     2.0   817.8    0.00 
 122    6:50   0.10   43.5    85    0.3   176     2.3   817.9    0.00 
 122    7:00   0.11   45.1    81    0.2   215     1.3   817.9    0.00 
 122    7:10   0.14   46.5    80    0.9   186     2.9   818.0    0.00 
 122    7:20   0.17   47.5    79    0.1   228     1.0   818.0    0.00 
 122    7:30   0.05   48.6    76    0.0     0     0.0   818.0    0.00 
 122    7:40   0.08   50.1    69    0.0     0     0.0   818.0    0.00 
 122    7:50   0.03   52.0    62    0.1   204     1.0   818.1    0.00 
 122    8:00   0.06   53.8    59    0.2    63     1.7   818.0    0.00 
 122    8:10   0.04   55.4    53    0.6    43     2.3   817.9    0.00 
 122    8:20   0.05   57.0    51    0.9   179     3.9   817.9    0.00 
 122    8:30   0.04   58.5    51    0.6    58     3.9   817.9    0.00 
 122    8:40   0.09   59.5    43    1.3    72     3.1   817.9    0.00 
 122    8:50   0.55   60.2    42    1.8    46     4.6   817.8    0.00 
 122    9:00   0.43   60.5    40    1.3    37     4.2   817.9    0.00 
 122    9:10   0.60   60.5    38    1.5    31     4.1   817.9    0.00 
 122    9:20   0.71   61.7    37    1.9   105     5.6   817.8    0.00 
 122    9:30   0.75   63.3    36    1.1    87     3.4   817.8    0.00 
 122    9:40   0.89   63.3    35    2.9   228    10.5   817.8    0.00 
 122    9:50   0.80   64.5    35    1.2   102     4.4   817.8    0.00 
 122   10:00   0.75   64.7    36    2.0   177     6.2   817.7    0.00 
 122   10:10   0.61   64.0    38    1.8   296     5.1   817.7    0.00 
 122   10:20   0.37   63.3    40    1.4   142     4.7   817.8    0.00 
 122   10:30   0.45   62.0    42    1.6   133     8.2   817.7    0.00 
 122   10:40   0.53   62.2    40    1.9   210     4.5   817.7    0.00 
 122   10:50   0.52   62.5    40    1.3   268     7.2   817.7    0.00 
 122   11:00   0.45   62.7    41    1.1   324     2.8   817.7    0.00 
 122   11:10   0.36   62.2    40    1.8   237     5.6   817.7    0.00 
 122   11:20   0.34   61.8    42    0.9   146     2.8   817.6    0.00 
 122   11:30   0.37   61.8    43    1.5   108     5.8   817.6    0.00 
 122   11:40   0.42   62.0    43    1.4   274     5.3   817.7    0.00 
 122   11:50   0.39   61.9    44    1.6     2     5.8   817.6    0.00 
 122   12:00   0.53   62.0    44    1.4   127     4.6   817.6    0.00 
 122   12:10   0.73   63.6    42    1.5   136     5.5   817.6    0.00 
 122   12:20   0.59   63.6    43    1.4   126     5.0   817.6    0.00 
 122   12:30   0.83   65.0    43    0.9    59     3.7   817.5    0.00 
 122   12:40   0.46   65.7    40    1.8    65     6.1   817.4    0.00 
 122   12:50   0.09   66.1    41    2.1    84     5.6   817.4    0.00 
 122   13:00   0.22   65.9    41    2.0    28     5.9   817.4    0.00 
 122   13:10   0.32   64.0    42    2.1   123     6.7   817.3    0.00 
 122   13:20   0.42   63.2    46    1.7    44     6.4   817.2    0.00 
 122   13:30   0.26   63.2    47    2.4     3     5.7   817.1    0.00 
 122   13:40   0.21   61.6    50    1.4    38     6.5   817.1    0.00 
 122   13:50   0.24   61.1    51    1.7   357     8.5   817.2    0.00 
 122   14:00   0.21   60.4    50    1.9    30     7.5   817.1    0.00 
 122   14:10   0.30   60.6    51    1.5     5     4.4   817.1    0.00 
 122   14:20   0.32   60.9    50    1.5    42     4.3   816.8    0.00 
 122   14:30   0.37   61.5    51    1.0    58     3.6   816.7    0.00 
 122   14:40   0.37   62.4    50    1.2    61     7.5   816.6    0.00 
 122   14:50   0.36   61.8    50    2.0    31     6.9   816.5    0.00 
 122   15:00   0.29   61.5    52    1.7    32     6.1   816.4    0.00 
 122   15:10   0.07   61.2    54    2.0    28     5.0   816.3    0.00 
 122   15:20   0.28   61.7    54    1.3    16     3.9   816.2    0.00 
 122   15:30   0.23   61.1    54    1.4   358     6.8   816.2    0.00 
 122   15:40   0.27   60.7    56    1.0    44     3.6   816.2    0.00 
 122   15:50   0.21   60.5    56    1.1    25     5.4   816.2    0.00 
 122   16:00   0.09   59.9    57    1.2    11     4.0   816.2    0.00 
 122   16:10   0.06   58.8    59    1.2    20     4.0   816.3    0.00 
 122   16:20   0.02   58.3    62    0.6    53     2.3   816.4    0.00 
 122   16:30   0.02   58.4    61    0.1   157     1.0   816.4    0.00 
 122   16:40   0.02   58.6    60    0.6   356     2.0   816.4    0.00 
 122   16:50   0.02   58.4    62    0.4    65     2.2   816.4    0.00 
 122   17:00   0.02   58.2    62    0.2    22     2.0   816.4    0.00 

Return to Chickering American River Reserve graphs page.


Western Regional Climate Center,wrcc@dri.edu